sensor_id;sensor_type;location;lat;lon;timestamp;pressure;altitude;pressure_sealevel;temperature;humidity
45872;BME280;32333;55.844;-3.210;2022-12-10T00:01:52;98541.43;;;-3.62;100.00
45872;BME280;32333;55.844;-3.210;2022-12-10T00:04:20;98541.58;;;-2.16;100.00
45872;BME280;32333;55.844;-3.210;2022-12-10T00:06:47;98537.00;;;-3.03;100.00
45872;BME280;32333;55.844;-3.210;2022-12-10T00:09:16;98541.17;;;-2.77;100.00
45872;BME280;32333;55.844;-3.210;2022-12-10T00:11:45;98542.13;;;-3.65;100.00
45872;BME280;32333;55.844;-3.210;2022-12-10T00:14:36;98539.01;;;-3.89;100.00
45872;BME280;32333;55.844;-3.210;2022-12-10T00:17:03;98535.27;;;-2.72;100.00
45872;BME280;32333;55.844;-3.210;2022-12-10T00:19:30;98534.67;;;-3.38;100.00
45872;BME280;32333;55.844;-3.210;2022-12-10T00:21:58;98532.19;;;-3.23;100.00
45872;BME280;32333;55.844;-3.210;2022-12-10T00:24:25;98529.70;;;-3.46;100.00
45872;BME280;32333;55.844;-3.210;2022-12-10T00:26:53;98529.11;;;-2.61;100.00
45872;BME280;32333;55.844;-3.210;2022-12-10T00:29:21;98528.50;;;-3.12;100.00
45872;BME280;32333;55.844;-3.210;2022-12-10T00:31:49;98533.53;;;-2.34;100.00
45872;BME280;32333;55.844;-3.210;2022-12-10T00:34:18;98535.63;;;-2.51;100.00
45872;BME280;32333;55.844;-3.210;2022-12-10T00:36:47;98534.79;;;-2.38;100.00
45872;BME280;32333;55.844;-3.210;2022-12-10T00:39:17;98533.54;;;-2.97;100.00
45872;BME280;32333;55.844;-3.210;2022-12-10T00:41:46;98528.68;;;-3.03;100.00
45872;BME280;32333;55.844;-3.210;2022-12-10T00:44:36;98527.49;;;-2.79;100.00
45872;BME280;32333;55.844;-3.210;2022-12-10T00:47:04;98529.41;;;-2.61;100.00
45872;BME280;32333;55.844;-3.210;2022-12-10T00:49:31;98528.23;;;-2.23;100.00
45872;BME280;32333;55.844;-3.210;2022-12-10T00:52:00;98528.23;;;-3.12;100.00
45872;BME280;32333;55.844;-3.210;2022-12-10T00:54:27;98528.46;;;-2.14;100.00
45872;BME280;32333;55.844;-3.210;2022-12-10T00:56:56;98528.20;;;-3.27;100.00
45872;BME280;32333;55.844;-3.210;2022-12-10T00:59:24;98526.02;;;-3.41;100.00
45872;BME280;32333;55.844;-3.210;2022-12-10T01:01:52;98527.22;;;-3.75;100.00
45872;BME280;32333;55.844;-3.210;2022-12-10T01:04:19;98529.79;;;-2.43;100.00
45872;BME280;32333;55.844;-3.210;2022-12-10T01:06:48;98528.50;;;-3.21;100.00
45872;BME280;32333;55.844;-3.210;2022-12-10T01:09:20;98531.05;;;-2.26;100.00
45872;BME280;32333;55.844;-3.210;2022-12-10T01:11:49;98531.10;;;-2.31;100.00
45872;BME280;32333;55.844;-3.210;2022-12-10T01:14:35;98533.80;;;-2.04;100.00
45872;BME280;32333;55.844;-3.210;2022-12-10T01:17:04;98536.33;;;-1.46;100.00
45872;BME280;32333;55.844;-3.210;2022-12-10T01:19:33;98532.31;;;-2.79;100.00
45872;BME280;32333;55.844;-3.210;2022-12-10T01:22:03;98537.86;;;-2.26;100.00
45872;BME280;32333;55.844;-3.210;2022-12-10T01:24:31;98537.13;;;-2.03;100.00
45872;BME280;32333;55.844;-3.210;2022-12-10T01:26:59;98542.39;;;0.03;100.00
45872;BME280;32333;55.844;-3.210;2022-12-10T01:29:26;98535.01;;;-1.75;100.00
45872;BME280;32333;55.844;-3.210;2022-12-10T01:31:56;98536.16;;;-0.97;100.00
45872;BME280;32333;55.844;-3.210;2022-12-10T01:34:24;98537.07;;;-1.89;100.00
45872;BME280;32333;55.844;-3.210;2022-12-10T01:36:52;98535.82;;;-2.15;100.00
45872;BME280;32333;55.844;-3.210;2022-12-10T01:39:22;98534.90;;;-2.23;100.00
45872;BME280;32333;55.844;-3.210;2022-12-10T01:41:52;98531.69;;;-2.42;100.00
45872;BME280;32333;55.844;-3.210;2022-12-10T01:45:11;98534.02;;;-2.03;100.00
45872;BME280;32333;55.844;-3.210;2022-12-10T01:47:40;98532.85;;;-2.44;100.00
45872;BME280;32333;55.844;-3.210;2022-12-10T01:50:08;98540.00;;;-2.44;100.00
45872;BME280;32333;55.844;-3.210;2022-12-10T01:52:37;98536.61;;;-3.00;100.00
45872;BME280;32333;55.844;-3.210;2022-12-10T01:55:37;98534.80;;;-2.30;100.00
45872;BME280;32333;55.844;-3.210;2022-12-10T01:58:04;98533.49;;;-2.12;100.00
45872;BME280;32333;55.844;-3.210;2022-12-10T02:00:34;98536.66;;;-2.76;100.00
45872;BME280;32333;55.844;-3.210;2022-12-10T02:03:07;98534.88;;;-2.40;100.00
45872;BME280;32333;55.844;-3.210;2022-12-10T02:05:42;98529.16;;;-1.34;100.00
45872;BME280;32333;55.844;-3.210;2022-12-10T02:08:19;98524.09;;;-1.70;100.00
45872;BME280;32333;55.844;-3.210;2022-12-10T02:10:59;98521.93;;;-2.66;100.00
45872;BME280;32333;55.844;-3.210;2022-12-10T02:14:44;98521.22;;;-2.16;100.00
45872;BME280;32333;55.844;-3.210;2022-12-10T02:17:15;98528.39;;;-3.55;100.00
45872;BME280;32333;55.844;-3.210;2022-12-10T02:19:56;98521.76;;;-1.44;100.00
45872;BME280;32333;55.844;-3.210;2022-12-10T02:22:27;98526.46;;;-2.20;100.00
45872;BME280;32333;55.844;-3.210;2022-12-10T02:24:57;98525.34;;;-2.13;100.00
45872;BME280;32333;55.844;-3.210;2022-12-10T02:27:31;98528.30;;;-1.56;100.00
45872;BME280;32333;55.844;-3.210;2022-12-10T02:30:02;98531.47;;;-2.16;100.00
45872;BME280;32333;55.844;-3.210;2022-12-10T02:32:33;98529.22;;;-0.72;100.00
45872;BME280;32333;55.844;-3.210;2022-12-10T02:35:07;98528.13;;;-1.04;100.00
45872;BME280;32333;55.844;-3.210;2022-12-10T02:37:39;98530.05;;;-1.31;100.00
45872;BME280;32333;55.844;-3.210;2022-12-10T02:40:13;98530.90;;;-1.78;100.00
45872;BME280;32333;55.844;-3.210;2022-12-10T02:44:37;98523.51;;;-0.76;100.00
45872;BME280;32333;55.844;-3.210;2022-12-10T02:47:05;98519.21;;;-1.37;100.00
45872;BME280;32333;55.844;-3.210;2022-12-10T02:49:34;98512.30;;;-0.89;100.00
45872;BME280;32333;55.844;-3.210;2022-12-10T02:52:07;98514.21;;;-1.19;100.00
45872;BME280;32333;55.844;-3.210;2022-12-10T02:54:39;98513.59;;;-0.99;100.00
45872;BME280;32333;55.844;-3.210;2022-12-10T02:57:15;98524.26;;;-2.11;100.00
45872;BME280;32333;55.844;-3.210;2022-12-10T02:59:56;98517.70;;;-1.58;100.00
45872;BME280;32333;55.844;-3.210;2022-12-10T03:02:32;98516.24;;;-1.89;100.00
45872;BME280;32333;55.844;-3.210;2022-12-10T03:05:05;98513.16;;;-1.05;100.00
45872;BME280;32333;55.844;-3.210;2022-12-10T03:07:38;98512.90;;;-0.79;100.00
45872;BME280;32333;55.844;-3.210;2022-12-10T03:10:13;98505.86;;;-1.00;100.00
45872;BME280;32333;55.844;-3.210;2022-12-10T03:14:36;98502.10;;;-1.31;100.00
45872;BME280;32333;55.844;-3.210;2022-12-10T03:17:06;98502.71;;;-1.68;100.00
45872;BME280;32333;55.844;-3.210;2022-12-10T03:19:37;98502.14;;;-0.82;100.00
45872;BME280;32333;55.844;-3.210;2022-12-10T03:22:08;98502.52;;;-0.53;100.00
45872;BME280;32333;55.844;-3.210;2022-12-10T03:24:37;98500.12;;;-1.10;100.00
45872;BME280;32333;55.844;-3.210;2022-12-10T03:27:06;98498.94;;;-0.01;100.00
45872;BME280;32333;55.844;-3.210;2022-12-10T03:29:39;98494.86;;;-0.33;100.00
45872;BME280;32333;55.844;-3.210;2022-12-10T03:32:10;98488.44;;;0.30;100.00
45872;BME280;32333;55.844;-3.210;2022-12-10T03:34:38;98483.25;;;-0.39;100.00
45872;BME280;32333;55.844;-3.210;2022-12-10T03:37:06;98476.72;;;0.40;100.00
45872;BME280;32333;55.844;-3.210;2022-12-10T03:39:34;98485.78;;;-0.96;100.00
45872;BME280;32333;55.844;-3.210;2022-12-10T03:44:37;98482.81;;;-0.29;100.00
45872;BME280;32333;55.844;-3.210;2022-12-10T03:47:07;98480.81;;;-0.47;100.00
45872;BME280;32333;55.844;-3.210;2022-12-10T03:49:36;98477.01;;;-0.32;100.00
45872;BME280;32333;55.844;-3.210;2022-12-10T03:52:04;98472.68;;;-0.32;100.00
45872;BME280;32333;55.844;-3.210;2022-12-10T03:54:31;98471.86;;;-0.43;100.00
45872;BME280;32333;55.844;-3.210;2022-12-10T03:57:00;98471.80;;;-0.30;100.00
45872;BME280;32333;55.844;-3.210;2022-12-10T03:59:28;98472.04;;;-0.74;100.00
45872;BME280;32333;55.844;-3.210;2022-12-10T04:01:56;98471.25;;;-1.05;100.00
45872;BME280;32333;55.844;-3.210;2022-12-10T04:04:24;98472.07;;;-0.51;100.00
45872;BME280;32333;55.844;-3.210;2022-12-10T04:06:52;98467.31;;;-0.62;100.00
45872;BME280;32333;55.844;-3.210;2022-12-10T04:09:20;98463.18;;;0.25;100.00
45872;BME280;32333;55.844;-3.210;2022-12-10T04:11:47;98467.44;;;0.20;100.00
45872;BME280;32333;55.844;-3.210;2022-12-10T04:14:35;98472.16;;;-0.89;100.00
45872;BME280;32333;55.844;-3.210;2022-12-10T04:17:03;98471.05;;;-0.38;100.00
45872;BME280;32333;55.844;-3.210;2022-12-10T04:19:31;98471.53;;;0.41;100.00
45872;BME280;32333;55.844;-3.210;2022-12-10T04:21:59;98473.01;;;-0.28;100.00
45872;BME280;32333;55.844;-3.210;2022-12-10T04:24:28;98469.43;;;-0.47;100.00
45872;BME280;32333;55.844;-3.210;2022-12-10T04:26:58;98466.65;;;-0.68;100.00
45872;BME280;32333;55.844;-3.210;2022-12-10T04:29:28;98463.70;;;-0.30;100.00
45872;BME280;32333;55.844;-3.210;2022-12-10T04:31:57;98470.19;;;-1.09;100.00
45872;BME280;32333;55.844;-3.210;2022-12-10T04:34:25;98466.14;;;-0.87;100.00
45872;BME280;32333;55.844;-3.210;2022-12-10T04:36:53;98464.99;;;-1.25;100.00
45872;BME280;32333;55.844;-3.210;2022-12-10T04:39:23;98471.70;;;-1.41;100.00
45872;BME280;32333;55.844;-3.210;2022-12-10T04:41:51;98471.11;;;-1.89;100.00
45872;BME280;32333;55.844;-3.210;2022-12-10T04:44:36;98469.02;;;-1.66;100.00
45872;BME280;32333;55.844;-3.210;2022-12-10T04:47:05;98474.20;;;-1.19;100.00
45872;BME280;32333;55.844;-3.210;2022-12-10T04:49:35;98473.48;;;-0.79;100.00
45872;BME280;32333;55.844;-3.210;2022-12-10T04:52:04;98473.78;;;-0.60;100.00
45872;BME280;32333;55.844;-3.210;2022-12-10T04:54:32;98473.21;;;-1.53;100.00
45872;BME280;32333;55.844;-3.210;2022-12-10T04:57:00;98475.96;;;-0.63;100.00
45872;BME280;32333;55.844;-3.210;2022-12-10T04:59:28;98475.65;;;-0.73;100.00
45872;BME280;32333;55.844;-3.210;2022-12-10T05:01:56;98482.22;;;-0.75;100.00
45872;BME280;32333;55.844;-3.210;2022-12-10T05:04:23;98477.85;;;-1.07;100.00
45872;BME280;32333;55.844;-3.210;2022-12-10T05:06:52;98479.80;;;-0.40;100.00
45872;BME280;32333;55.844;-3.210;2022-12-10T05:09:19;98475.66;;;-1.21;100.00
45872;BME280;32333;55.844;-3.210;2022-12-10T05:11:47;98480.60;;;-0.40;100.00
45872;BME280;32333;55.844;-3.210;2022-12-10T05:14:35;98478.63;;;-0.57;100.00
45872;BME280;32333;55.844;-3.210;2022-12-10T05:17:03;98479.94;;;0.14;100.00
45872;BME280;32333;55.844;-3.210;2022-12-10T05:19:31;98480.15;;;0.11;100.00
45872;BME280;32333;55.844;-3.210;2022-12-10T05:21:59;98483.15;;;-0.57;100.00
45872;BME280;32333;55.844;-3.210;2022-12-10T05:24:27;98481.19;;;-0.70;100.00
45872;BME280;32333;55.844;-3.210;2022-12-10T05:26:56;98481.12;;;-1.89;100.00
45872;BME280;32333;55.844;-3.210;2022-12-10T05:29:24;98480.41;;;-2.03;100.00
45872;BME280;32333;55.844;-3.210;2022-12-10T05:31:52;98479.04;;;-1.49;100.00
45872;BME280;32333;55.844;-3.210;2022-12-10T05:34:20;98472.78;;;-1.31;100.00
45872;BME280;32333;55.844;-3.210;2022-12-10T05:36:47;98475.95;;;-1.27;100.00
45872;BME280;32333;55.844;-3.210;2022-12-10T05:39:15;98481.83;;;-1.38;100.00
45872;BME280;32333;55.844;-3.210;2022-12-10T05:41:43;98482.04;;;-1.50;100.00
45872;BME280;32333;55.844;-3.210;2022-12-10T05:44:36;98487.17;;;-2.30;100.00
45872;BME280;32333;55.844;-3.210;2022-12-10T05:47:04;98482.56;;;-1.19;100.00
45872;BME280;32333;55.844;-3.210;2022-12-10T05:49:32;98479.50;;;-1.59;100.00
45872;BME280;32333;55.844;-3.210;2022-12-10T05:51:59;98480.62;;;-1.61;100.00
45872;BME280;32333;55.844;-3.210;2022-12-10T05:54:28;98481.51;;;-2.19;100.00
45872;BME280;32333;55.844;-3.210;2022-12-10T05:56:55;98480.22;;;-1.90;100.00
45872;BME280;32333;55.844;-3.210;2022-12-10T05:59:23;98483.23;;;-2.24;100.00
45872;BME280;32333;55.844;-3.210;2022-12-10T06:01:52;98479.74;;;-1.69;100.00
45872;BME280;32333;55.844;-3.210;2022-12-10T06:04:19;98475.53;;;-1.75;100.00
45872;BME280;32333;55.844;-3.210;2022-12-10T06:06:47;98474.00;;;-1.29;100.00
45872;BME280;32333;55.844;-3.210;2022-12-10T06:09:15;98476.59;;;-0.63;100.00
45872;BME280;32333;55.844;-3.210;2022-12-10T06:11:43;98472.18;;;-0.82;100.00
45872;BME280;32333;55.844;-3.210;2022-12-10T06:14:36;98479.81;;;-2.12;100.00
45872;BME280;32333;55.844;-3.210;2022-12-10T06:17:04;98477.32;;;-1.58;100.00
45872;BME280;32333;55.844;-3.210;2022-12-10T06:19:31;98474.74;;;-1.44;100.00
45872;BME280;32333;55.844;-3.210;2022-12-10T06:21:59;98468.43;;;-1.40;100.00
45872;BME280;32333;55.844;-3.210;2022-12-10T06:24:29;98471.97;;;-1.97;100.00
45872;BME280;32333;55.844;-3.210;2022-12-10T06:26:56;98469.13;;;-1.67;100.00
45872;BME280;32333;55.844;-3.210;2022-12-10T06:29:24;98469.51;;;-1.78;100.00
45872;BME280;32333;55.844;-3.210;2022-12-10T06:31:53;98469.41;;;-1.56;100.00
45872;BME280;32333;55.844;-3.210;2022-12-10T06:34:20;98470.74;;;-1.42;100.00
45872;BME280;32333;55.844;-3.210;2022-12-10T06:36:48;98471.04;;;-1.38;100.00
45872;BME280;32333;55.844;-3.210;2022-12-10T06:39:16;98472.35;;;-1.35;100.00
45872;BME280;32333;55.844;-3.210;2022-12-10T06:41:43;98474.49;;;-0.93;100.00
45872;BME280;32333;55.844;-3.210;2022-12-10T06:44:36;98481.25;;;-2.29;100.00
45872;BME280;32333;55.844;-3.210;2022-12-10T06:47:04;98475.62;;;-1.28;100.00
45872;BME280;32333;55.844;-3.210;2022-12-10T06:49:31;98479.51;;;-1.62;100.00
45872;BME280;32333;55.844;-3.210;2022-12-10T06:52:00;98477.50;;;-1.29;100.00
45872;BME280;32333;55.844;-3.210;2022-12-10T06:54:28;98476.83;;;-1.75;100.00
45872;BME280;32333;55.844;-3.210;2022-12-10T06:56:56;98471.60;;;-1.11;100.00
45872;BME280;32333;55.844;-3.210;2022-12-10T06:59:23;98474.92;;;-0.50;100.00
45872;BME280;32333;55.844;-3.210;2022-12-10T07:01:51;98472.56;;;-0.77;100.00
45872;BME280;32333;55.844;-3.210;2022-12-10T07:04:18;98474.76;;;-0.66;100.00
45872;BME280;32333;55.844;-3.210;2022-12-10T07:06:46;98476.34;;;-0.36;100.00
45872;BME280;32333;55.844;-3.210;2022-12-10T07:09:15;98477.16;;;-0.21;100.00
45872;BME280;32333;55.844;-3.210;2022-12-10T07:11:43;98475.82;;;-1.64;100.00
45872;BME280;32333;55.844;-3.210;2022-12-10T07:14:35;98476.98;;;-0.67;100.00
45872;BME280;32333;55.844;-3.210;2022-12-10T07:17:03;98471.38;;;-0.23;100.00
45872;BME280;32333;55.844;-3.210;2022-12-10T07:19:31;98469.93;;;-1.36;100.00
45872;BME280;32333;55.844;-3.210;2022-12-10T07:21:58;98472.19;;;-1.14;100.00
45872;BME280;32333;55.844;-3.210;2022-12-10T07:24:26;98471.54;;;-1.51;100.00
45872;BME280;32333;55.844;-3.210;2022-12-10T07:26:54;98472.80;;;-1.17;100.00
45872;BME280;32333;55.844;-3.210;2022-12-10T07:29:21;98475.61;;;-1.06;100.00
45872;BME280;32333;55.844;-3.210;2022-12-10T07:31:50;98477.66;;;-1.48;100.00
45872;BME280;32333;55.844;-3.210;2022-12-10T07:34:18;98481.31;;;-0.86;100.00
45872;BME280;32333;55.844;-3.210;2022-12-10T07:36:45;98481.25;;;-0.74;100.00
45872;BME280;32333;55.844;-3.210;2022-12-10T07:39:14;98480.25;;;-1.20;100.00
45872;BME280;32333;55.844;-3.210;2022-12-10T07:41:41;98480.20;;;-0.97;100.00
45872;BME280;32333;55.844;-3.210;2022-12-10T07:44:36;98485.47;;;-0.36;100.00
45872;BME280;32333;55.844;-3.210;2022-12-10T07:47:04;98481.86;;;-0.34;100.00
45872;BME280;32333;55.844;-3.210;2022-12-10T07:49:31;98485.97;;;-0.96;100.00
45872;BME280;32333;55.844;-3.210;2022-12-10T07:51:58;98486.68;;;-1.08;100.00
45872;BME280;32333;55.844;-3.210;2022-12-10T07:54:26;98490.40;;;0.39;100.00
45872;BME280;32333;55.844;-3.210;2022-12-10T07:56:54;98493.02;;;-0.73;100.00
45872;BME280;32333;55.844;-3.210;2022-12-10T07:59:21;98499.51;;;-1.04;100.00
45872;BME280;32333;55.844;-3.210;2022-12-10T08:01:50;98501.40;;;0.14;100.00
45872;BME280;32333;55.844;-3.210;2022-12-10T08:04:18;98503.77;;;-0.83;100.00
45872;BME280;32333;55.844;-3.210;2022-12-10T08:06:45;98508.13;;;0.50;100.00
45872;BME280;32333;55.844;-3.210;2022-12-10T08:09:13;98509.99;;;-0.37;100.00
45872;BME280;32333;55.844;-3.210;2022-12-10T08:11:41;98505.37;;;0.53;100.00
45872;BME280;32333;55.844;-3.210;2022-12-10T08:14:35;98510.27;;;0.60;100.00
45872;BME280;32333;55.844;-3.210;2022-12-10T08:17:03;98514.32;;;0.13;100.00
45872;BME280;32333;55.844;-3.210;2022-12-10T08:19:31;98512.88;;;0.39;100.00
45872;BME280;32333;55.844;-3.210;2022-12-10T08:21:59;98508.39;;;0.58;100.00
45872;BME280;32333;55.844;-3.210;2022-12-10T08:24:27;98511.09;;;0.41;100.00
45872;BME280;32333;55.844;-3.210;2022-12-10T08:26:55;98508.71;;;0.57;100.00
45872;BME280;32333;55.844;-3.210;2022-12-10T08:29:24;98512.32;;;0.10;100.00
45872;BME280;32333;55.844;-3.210;2022-12-10T08:31:52;98507.79;;;0.32;100.00
45872;BME280;32333;55.844;-3.210;2022-12-10T08:34:19;98510.37;;;-0.30;100.00
45872;BME280;32333;55.844;-3.210;2022-12-10T08:36:47;98511.15;;;-0.26;100.00
45872;BME280;32333;55.844;-3.210;2022-12-10T08:39:15;98516.75;;;-1.10;100.00
45872;BME280;32333;55.844;-3.210;2022-12-10T08:41:43;98523.22;;;0.14;100.00
45872;BME280;32333;55.844;-3.210;2022-12-10T08:44:36;98521.23;;;0.13;100.00
45872;BME280;32333;55.844;-3.210;2022-12-10T08:47:04;98522.30;;;0.52;100.00
45872;BME280;32333;55.844;-3.210;2022-12-10T08:49:31;98521.84;;;-0.29;100.00
45872;BME280;32333;55.844;-3.210;2022-12-10T08:52:00;98523.04;;;-0.84;100.00
45872;BME280;32333;55.844;-3.210;2022-12-10T08:54:27;98524.43;;;-0.30;100.00
45872;BME280;32333;55.844;-3.210;2022-12-10T08:56:55;98528.61;;;-1.20;100.00
45872;BME280;32333;55.844;-3.210;2022-12-10T08:59:23;98525.67;;;-0.89;100.00
45872;BME280;32333;55.844;-3.210;2022-12-10T09:01:52;98535.61;;;-1.85;100.00
45872;BME280;32333;55.844;-3.210;2022-12-10T09:04:19;98536.54;;;-1.29;100.00
45872;BME280;32333;55.844;-3.210;2022-12-10T09:06:47;98539.67;;;-0.86;100.00
45872;BME280;32333;55.844;-3.210;2022-12-10T09:09:15;98541.43;;;-1.12;100.00
45872;BME280;32333;55.844;-3.210;2022-12-10T09:11:43;98543.28;;;-0.77;100.00
45872;BME280;32333;55.844;-3.210;2022-12-10T09:14:35;98541.96;;;-0.70;100.00
45872;BME280;32333;55.844;-3.210;2022-12-10T09:17:03;98546.86;;;-2.30;100.00
45872;BME280;32333;55.844;-3.210;2022-12-10T09:19:31;98544.97;;;-0.99;100.00
45872;BME280;32333;55.844;-3.210;2022-12-10T09:22:00;98543.71;;;-0.61;100.00
45872;BME280;32333;55.844;-3.210;2022-12-10T09:24:27;98546.53;;;-1.13;100.00
45872;BME280;32333;55.844;-3.210;2022-12-10T09:26:55;98547.56;;;-0.82;100.00
45872;BME280;32333;55.844;-3.210;2022-12-10T09:29:24;98550.26;;;-1.16;100.00
45872;BME280;32333;55.844;-3.210;2022-12-10T09:31:52;98546.96;;;-1.32;100.00
45872;BME280;32333;55.844;-3.210;2022-12-10T09:34:20;98551.86;;;-1.07;100.00
45872;BME280;32333;55.844;-3.210;2022-12-10T09:36:47;98553.15;;;-1.64;100.00
45872;BME280;32333;55.844;-3.210;2022-12-10T09:39:15;98560.44;;;-0.09;100.00
45872;BME280;32333;55.844;-3.210;2022-12-10T09:41:56;98562.28;;;-0.43;100.00
45872;BME280;32333;55.844;-3.210;2022-12-10T09:44:44;98562.88;;;0.35;100.00
45872;BME280;32333;55.844;-3.210;2022-12-10T09:47:14;98564.11;;;-0.40;100.00
45872;BME280;32333;55.844;-3.210;2022-12-10T09:49:53;98569.07;;;-1.19;100.00
45872;BME280;32333;55.844;-3.210;2022-12-10T09:52:26;98571.61;;;-1.13;100.00
45872;BME280;32333;55.844;-3.210;2022-12-10T09:54:58;98577.65;;;-0.30;100.00
45872;BME280;32333;55.844;-3.210;2022-12-10T09:57:31;98577.51;;;-0.55;100.00
45872;BME280;32333;55.844;-3.210;2022-12-10T10:00:02;98582.95;;;0.04;100.00
45872;BME280;32333;55.844;-3.210;2022-12-10T10:02:31;98577.58;;;0.40;100.00
45872;BME280;32333;55.844;-3.210;2022-12-10T10:05:09;98578.32;;;-0.48;100.00
45872;BME280;32333;55.844;-3.210;2022-12-10T10:07:43;98580.47;;;-0.00;100.00
45872;BME280;32333;55.844;-3.210;2022-12-10T10:10:21;98583.99;;;-0.59;100.00
45872;BME280;32333;55.844;-3.210;2022-12-10T10:14:35;98584.13;;;0.10;100.00
45872;BME280;32333;55.844;-3.210;2022-12-10T10:17:08;98590.16;;;0.30;100.00
45872;BME280;32333;55.844;-3.210;2022-12-10T10:19:38;98595.00;;;0.75;100.00
45872;BME280;32333;55.844;-3.210;2022-12-10T10:22:06;98592.66;;;-0.08;100.00
45872;BME280;32333;55.844;-3.210;2022-12-10T10:24:35;98599.60;;;-1.01;100.00
45872;BME280;32333;55.844;-3.210;2022-12-10T10:27:13;98600.53;;;0.89;100.00
45872;BME280;32333;55.844;-3.210;2022-12-10T10:29:40;98599.62;;;0.45;100.00
45872;BME280;32333;55.844;-3.210;2022-12-10T10:32:14;98599.65;;;0.20;100.00
45872;BME280;32333;55.844;-3.210;2022-12-10T10:34:43;98597.19;;;0.62;100.00
45872;BME280;32333;55.844;-3.210;2022-12-10T10:37:17;98602.88;;;0.27;100.00
45872;BME280;32333;55.844;-3.210;2022-12-10T10:39:48;98603.73;;;0.56;100.00
45872;BME280;32333;55.844;-3.210;2022-12-10T10:44:37;98613.89;;;0.45;100.00
45872;BME280;32333;55.844;-3.210;2022-12-10T10:47:25;98615.41;;;-0.20;100.00
45872;BME280;32333;55.844;-3.210;2022-12-10T10:49:54;98621.59;;;0.19;100.00
45872;BME280;32333;55.844;-3.210;2022-12-10T10:52:22;98625.08;;;0.03;100.00
45872;BME280;32333;55.844;-3.210;2022-12-10T10:54:51;98624.12;;;0.71;100.00
45872;BME280;32333;55.844;-3.210;2022-12-10T10:57:24;98624.04;;;-0.45;100.00
45872;BME280;32333;55.844;-3.210;2022-12-10T10:59:56;98624.31;;;-0.61;100.00
45872;BME280;32333;55.844;-3.210;2022-12-10T11:02:30;98627.42;;;0.98;100.00
45872;BME280;32333;55.844;-3.210;2022-12-10T11:05:05;98629.43;;;0.36;100.00
45872;BME280;32333;55.844;-3.210;2022-12-10T11:07:35;98633.30;;;0.17;100.00
45872;BME280;32333;55.844;-3.210;2022-12-10T11:10:16;98634.27;;;0.58;100.00
45872;BME280;32333;55.844;-3.210;2022-12-10T11:14:40;98633.82;;;0.97;100.00
45872;BME280;32333;55.844;-3.210;2022-12-10T11:17:18;98629.15;;;1.85;100.00
45872;BME280;32333;55.844;-3.210;2022-12-10T11:19:55;98630.13;;;1.40;100.00
45872;BME280;32333;55.844;-3.210;2022-12-10T11:22:25;98636.36;;;0.88;100.00
45872;BME280;32333;55.844;-3.210;2022-12-10T11:24:54;98638.77;;;0.82;100.00
45872;BME280;32333;55.844;-3.210;2022-12-10T11:27:36;98635.50;;;1.58;100.00
45872;BME280;32333;55.844;-3.210;2022-12-10T11:30:08;98634.95;;;1.95;100.00
45872;BME280;32333;55.844;-3.210;2022-12-10T11:32:52;98638.09;;;1.70;100.00
45872;BME280;32333;55.844;-3.210;2022-12-10T11:35:36;98643.27;;;1.08;100.00
45872;BME280;32333;55.844;-3.210;2022-12-10T11:38:22;98644.84;;;1.66;100.00
45872;BME280;32333;55.844;-3.210;2022-12-10T11:40:59;98651.25;;;1.48;100.00
45872;BME280;32333;55.844;-3.210;2022-12-10T11:44:42;98642.30;;;2.10;100.00
45872;BME280;32333;55.844;-3.210;2022-12-10T11:47:22;98646.70;;;1.28;100.00
45872;BME280;32333;55.844;-3.210;2022-12-10T11:50:08;98644.14;;;1.91;100.00
45872;BME280;32333;55.844;-3.210;2022-12-10T11:52:51;98645.27;;;1.58;100.00
45872;BME280;32333;55.844;-3.210;2022-12-10T11:55:35;98646.36;;;1.77;100.00
45872;BME280;32333;55.844;-3.210;2022-12-10T11:58:20;98642.24;;;1.99;100.00
45872;BME280;32333;55.844;-3.210;2022-12-10T12:01:01;98641.31;;;2.16;100.00
45872;BME280;32333;55.844;-3.210;2022-12-10T12:03:43;98647.33;;;1.12;100.00
45872;BME280;32333;55.844;-3.210;2022-12-10T12:06:27;98647.74;;;1.83;100.00
45872;BME280;32333;55.844;-3.210;2022-12-10T12:09:04;98651.58;;;0.95;100.00
45872;BME280;32333;55.844;-3.210;2022-12-10T12:11:50;98647.28;;;1.08;100.00
45872;BME280;32333;55.844;-3.210;2022-12-10T12:14:40;98644.02;;;2.48;100.00
45872;BME280;32333;55.844;-3.210;2022-12-10T12:17:16;98644.28;;;2.69;100.00
45872;BME280;32333;55.844;-3.210;2022-12-10T12:19:49;98650.48;;;1.86;100.00
45872;BME280;32333;55.844;-3.210;2022-12-10T12:22:24;98643.69;;;2.24;100.00
45872;BME280;32333;55.844;-3.210;2022-12-10T12:24:55;98647.36;;;1.71;100.00
45872;BME280;32333;55.844;-3.210;2022-12-10T12:27:29;98646.11;;;2.38;100.00
45872;BME280;32333;55.844;-3.210;2022-12-10T12:30:06;98643.13;;;1.94;100.00
45872;BME280;32333;55.844;-3.210;2022-12-10T12:32:44;98645.60;;;2.31;100.00
45872;BME280;32333;55.844;-3.210;2022-12-10T12:35:17;98647.89;;;2.26;100.00
45872;BME280;32333;55.844;-3.210;2022-12-10T12:37:50;98653.59;;;1.98;100.00
45872;BME280;32333;55.844;-3.210;2022-12-10T12:40:28;98659.96;;;-0.53;100.00
45872;BME280;32333;55.844;-3.210;2022-12-10T12:44:47;98652.05;;;2.09;100.00
45872;BME280;32333;55.844;-3.210;2022-12-10T12:47:23;98656.82;;;1.14;100.00
45872;BME280;32333;55.844;-3.210;2022-12-10T12:49:57;98663.67;;;2.47;100.00
45872;BME280;32333;55.844;-3.210;2022-12-10T12:52:30;98664.75;;;2.25;100.00
45872;BME280;32333;55.844;-3.210;2022-12-10T12:55:05;98668.62;;;2.42;100.00
45872;BME280;32333;55.844;-3.210;2022-12-10T12:57:44;98668.53;;;2.86;100.00
45872;BME280;32333;55.844;-3.210;2022-12-10T13:00:17;98670.52;;;3.11;100.00
45872;BME280;32333;55.844;-3.210;2022-12-10T13:02:54;98672.74;;;1.80;100.00
45872;BME280;32333;55.844;-3.210;2022-12-10T13:05:27;98669.97;;;2.52;100.00
45872;BME280;32333;55.844;-3.210;2022-12-10T13:08:30;98667.97;;;2.38;100.00
45872;BME280;32333;55.844;-3.210;2022-12-10T13:11:01;98670.33;;;2.07;100.00
45872;BME280;32333;55.844;-3.210;2022-12-10T13:14:35;98678.04;;;1.69;100.00
45872;BME280;32333;55.844;-3.210;2022-12-10T13:17:37;98678.36;;;2.38;100.00
45872;BME280;32333;55.844;-3.210;2022-12-10T13:20:33;98672.74;;;2.77;100.00
45872;BME280;32333;55.844;-3.210;2022-12-10T13:23:02;98671.27;;;2.92;100.00
45872;BME280;32333;55.844;-3.210;2022-12-10T13:26:03;98667.04;;;2.93;100.00